Estación Meteorológica Peña el Pijo (Robertgarden) [ 02/03/23 04:29:56 CET ]

Fecha Hora Presion(HPa) Temp (°C) Humedad % Rocio (°C) Viento ( m/s) Direccion Lluvia 1Hora(mm) Lluvia 24H(mm) LLuvia Total(mm)
2012-Sep-29 01:01:16 1004.000 9.4 90 7.9         178.19
2012-Sep-29 02:01:14 1004.200 9.3 88 7.4         178.19
2012-Sep-29 03:04:25 1003.700 9.4 87 7.3         178.19
2012-Sep-29 04:01:13 1003.700 9.9 85 7.5         178.19
2012-Sep-29 05:01:13 1003.600 10.1 86 7.8         178.19
2012-Sep-29 06:01:14 1003.900 8.9 88 7.0         178.19
2012-Sep-29 07:01:14 1004.200 8.6 87 6.6         178.19
2012-Sep-29 08:01:20 1004.800 8.1 89 6.4         178.19
2012-Sep-29 09:01:18 1005.100 8.6 91 7.2         178.19
2012-Sep-29 10:01:17 1005.400 9.5 92 8.3         178.19
2012-Sep-29 11:01:22 1006.200 10.5 92 9.2         178.19
2012-Sep-29 12:01:17 1006.400 12.7 91 11.3         178.19
2012-Sep-29 13:01:16 1005.900 13.5 85 11.0         178.19
2012-Sep-29 14:01:18 1005.800 16.8 73 11.9         178.19
2012-Sep-29 15:01:15 1005.900 15.3 70 9.9         178.19
2012-Sep-29 16:01:14 1006.200 15.3 67 9.2         178.19
2012-Sep-29 17:01:16 1006.500 13.6 76 9.4         178.19
2012-Sep-29 18:01:12 1006.500 14.4 71 9.2         178.19
2012-Sep-29 19:01:11 1006.800 14.1 71 8.9         178.19
2012-Sep-29 20:01:12 1007.600 12.5 77 8.6         178.19
2012-Sep-29 21:01:17 1008.100 10.4 81 7.3         178.19
2012-Sep-29 22:01:16 1008.800 9.1 86 6.9         178.19
2012-Sep-29 23:01:16 1009.200 8.5 89 6.8         178.19

Temperatura Máxima:16°    Temperatura Mínima:
Presión Máxima:1009.200 Hpa    Presión Mínima:1003.600 Hpa


Volver